sensor_id;sensor_type;location;lat;lon;timestamp;P1;durP1;ratioP1;P2;durP2;ratioP2
2408;SDS011;8463;48.094;7.970;2022-09-17T00:01:55;1.03;;;0.93;;
2408;SDS011;8463;48.094;7.970;2022-09-17T00:04:21;1.87;;;1.20;;
2408;SDS011;8463;48.094;7.970;2022-09-17T00:06:47;1.00;;;0.90;;
2408;SDS011;8463;48.094;7.970;2022-09-17T00:09:13;1.00;;;0.90;;
2408;SDS011;8463;48.094;7.970;2022-09-17T00:11:40;7.80;;;1.20;;
2408;SDS011;8463;48.094;7.970;2022-09-17T00:14:08;1.67;;;0.93;;
2408;SDS011;8463;48.094;7.970;2022-09-17T00:16:39;1.80;;;1.00;;
2408;SDS011;8463;48.094;7.970;2022-09-17T00:19:09;2.60;;;1.20;;
2408;SDS011;8463;48.094;7.970;2022-09-17T00:21:41;2.00;;;0.97;;
2408;SDS011;8463;48.094;7.970;2022-09-17T00:24:08;1.20;;;0.93;;
2408;SDS011;8463;48.094;7.970;2022-09-17T00:26:35;1.10;;;0.80;;
2408;SDS011;8463;48.094;7.970;2022-09-17T00:29:01;2.67;;;1.17;;
2408;SDS011;8463;48.094;7.970;2022-09-17T00:31:28;0.70;;;0.67;;
2408;SDS011;8463;48.094;7.970;2022-09-17T00:33:54;1.00;;;1.00;;
2408;SDS011;8463;48.094;7.970;2022-09-17T00:36:20;2.10;;;0.90;;
2408;SDS011;8463;48.094;7.970;2022-09-17T00:38:49;1.70;;;0.77;;
2408;SDS011;8463;48.094;7.970;2022-09-17T00:41:17;1.73;;;1.20;;
2408;SDS011;8463;48.094;7.970;2022-09-17T00:43:45;1.00;;;0.90;;
2408;SDS011;8463;48.094;7.970;2022-09-17T00:46:20;1.80;;;1.20;;
2408;SDS011;8463;48.094;7.970;2022-09-17T00:48:52;0.80;;;0.80;;
2408;SDS011;8463;48.094;7.970;2022-09-17T00:51:20;2.27;;;0.87;;
2408;SDS011;8463;48.094;7.970;2022-09-17T00:53:52;0.80;;;0.73;;
2408;SDS011;8463;48.094;7.970;2022-09-17T00:56:24;1.10;;;1.00;;
2408;SDS011;8463;48.094;7.970;2022-09-17T00:58:51;1.00;;;0.80;;
2408;SDS011;8463;48.094;7.970;2022-09-17T01:01:18;0.70;;;0.70;;
2408;SDS011;8463;48.094;7.970;2022-09-17T01:03:44;0.80;;;0.80;;
2408;SDS011;8463;48.094;7.970;2022-09-17T01:14:12;1.40;;;0.80;;
2408;SDS011;8463;48.094;7.970;2022-09-17T01:22:49;2.67;;;1.43;;
2408;SDS011;8463;48.094;7.970;2022-09-17T01:39:48;1.83;;;0.87;;
2408;SDS011;8463;48.094;7.970;2022-09-17T01:42:26;2.97;;;0.77;;
2408;SDS011;8463;48.094;7.970;2022-09-17T01:45:06;2.83;;;0.90;;
2408;SDS011;8463;48.094;7.970;2022-09-17T01:47:43;0.90;;;0.77;;
2408;SDS011;8463;48.094;7.970;2022-09-17T01:50:12;2.43;;;1.10;;
2408;SDS011;8463;48.094;7.970;2022-09-17T01:52:46;0.90;;;0.67;;
2408;SDS011;8463;48.094;7.970;2022-09-17T01:55:15;1.33;;;0.90;;
2408;SDS011;8463;48.094;7.970;2022-09-17T02:00:08;1.63;;;0.87;;
2408;SDS011;8463;48.094;7.970;2022-09-17T02:02:59;1.00;;;0.70;;
2408;SDS011;8463;48.094;7.970;2022-09-17T02:05:35;0.60;;;0.50;;
2408;SDS011;8463;48.094;7.970;2022-09-17T02:08:12;1.00;;;0.83;;
2408;SDS011;8463;48.094;7.970;2022-09-17T02:10:50;0.70;;;0.70;;
2408;SDS011;8463;48.094;7.970;2022-09-17T02:13:30;2.17;;;0.80;;
2408;SDS011;8463;48.094;7.970;2022-09-17T02:16:25;2.53;;;2.33;;
2408;SDS011;8463;48.094;7.970;2022-09-17T02:19:14;1.70;;;0.90;;
2408;SDS011;8463;48.094;7.970;2022-09-17T02:22:20;0.60;;;0.60;;
2408;SDS011;8463;48.094;7.970;2022-09-17T02:27:53;1.10;;;0.83;;
2408;SDS011;8463;48.094;7.970;2022-09-17T02:30:34;0.70;;;0.60;;
2408;SDS011;8463;48.094;7.970;2022-09-17T02:33:00;1.67;;;0.60;;
2408;SDS011;8463;48.094;7.970;2022-09-17T02:35:30;1.23;;;0.80;;
2408;SDS011;8463;48.094;7.970;2022-09-17T02:37:57;1.07;;;0.60;;
2408;SDS011;8463;48.094;7.970;2022-09-17T02:40:23;0.60;;;0.60;;
2408;SDS011;8463;48.094;7.970;2022-09-17T02:48:23;1.40;;;0.93;;
2408;SDS011;8463;48.094;7.970;2022-09-17T02:53:44;2.87;;;0.80;;
2408;SDS011;8463;48.094;7.970;2022-09-17T02:56:13;0.70;;;0.50;;
2408;SDS011;8463;48.094;7.970;2022-09-17T03:01:48;1.27;;;0.60;;
2408;SDS011;8463;48.094;7.970;2022-09-17T03:04:21;2.90;;;0.70;;
2408;SDS011;8463;48.094;7.970;2022-09-17T03:06:50;3.57;;;0.77;;
2408;SDS011;8463;48.094;7.970;2022-09-17T03:09:17;6.47;;;3.53;;
2408;SDS011;8463;48.094;7.970;2022-09-17T03:11:42;1.03;;;0.93;;
2408;SDS011;8463;48.094;7.970;2022-09-17T03:14:08;4.33;;;1.00;;
2408;SDS011;8463;48.094;7.970;2022-09-17T03:16:34;1.10;;;1.00;;
2408;SDS011;8463;48.094;7.970;2022-09-17T03:18:59;1.13;;;1.03;;
2408;SDS011;8463;48.094;7.970;2022-09-17T03:21:25;1.33;;;0.77;;
2408;SDS011;8463;48.094;7.970;2022-09-17T03:23:51;1.10;;;1.00;;
2408;SDS011;8463;48.094;7.970;2022-09-17T03:26:17;1.10;;;0.80;;
2408;SDS011;8463;48.094;7.970;2022-09-17T03:28:42;3.57;;;0.77;;
2408;SDS011;8463;48.094;7.970;2022-09-17T03:31:08;2.20;;;0.80;;
2408;SDS011;8463;48.094;7.970;2022-09-17T03:33:34;1.50;;;1.13;;
2408;SDS011;8463;48.094;7.970;2022-09-17T03:35:59;2.03;;;1.23;;
2408;SDS011;8463;48.094;7.970;2022-09-17T03:38:25;1.70;;;0.90;;
2408;SDS011;8463;48.094;7.970;2022-09-17T03:41:01;0.67;;;0.67;;
2408;SDS011;8463;48.094;7.970;2022-09-17T03:43:29;3.47;;;1.43;;
2408;SDS011;8463;48.094;7.970;2022-09-17T03:45:54;3.43;;;1.10;;
2408;SDS011;8463;48.094;7.970;2022-09-17T03:48:20;1.37;;;0.80;;
2408;SDS011;8463;48.094;7.970;2022-09-17T03:50:47;1.27;;;0.87;;
2408;SDS011;8463;48.094;7.970;2022-09-17T03:53:12;1.90;;;1.53;;
2408;SDS011;8463;48.094;7.970;2022-09-17T03:55:38;3.97;;;0.90;;
2408;SDS011;8463;48.094;7.970;2022-09-17T03:58:04;1.40;;;0.70;;
2408;SDS011;8463;48.094;7.970;2022-09-17T04:00:30;3.83;;;1.07;;
2408;SDS011;8463;48.094;7.970;2022-09-17T04:02:57;1.23;;;0.90;;
2408;SDS011;8463;48.094;7.970;2022-09-17T04:05:22;1.23;;;1.13;;
2408;SDS011;8463;48.094;7.970;2022-09-17T04:07:48;0.83;;;0.83;;
2408;SDS011;8463;48.094;7.970;2022-09-17T04:10:14;1.43;;;1.20;;
2408;SDS011;8463;48.094;7.970;2022-09-17T04:12:40;3.13;;;1.20;;
2408;SDS011;8463;48.094;7.970;2022-09-17T04:15:05;1.10;;;1.00;;
2408;SDS011;8463;48.094;7.970;2022-09-17T04:17:32;4.30;;;1.10;;
2408;SDS011;8463;48.094;7.970;2022-09-17T04:19:57;1.33;;;0.77;;
2408;SDS011;8463;48.094;7.970;2022-09-17T04:22:24;0.80;;;0.70;;
2408;SDS011;8463;48.094;7.970;2022-09-17T04:24:50;2.87;;;0.63;;
2408;SDS011;8463;48.094;7.970;2022-09-17T04:27:15;1.10;;;0.70;;
2408;SDS011;8463;48.094;7.970;2022-09-17T04:29:41;1.33;;;0.70;;
2408;SDS011;8463;48.094;7.970;2022-09-17T04:32:06;1.17;;;1.03;;
2408;SDS011;8463;48.094;7.970;2022-09-17T04:34:33;1.17;;;1.10;;
2408;SDS011;8463;48.094;7.970;2022-09-17T04:36:58;1.77;;;0.70;;
2408;SDS011;8463;48.094;7.970;2022-09-17T04:39:24;0.93;;;0.83;;
2408;SDS011;8463;48.094;7.970;2022-09-17T04:41:50;1.50;;;1.00;;
2408;SDS011;8463;48.094;7.970;2022-09-17T04:44:15;1.13;;;1.00;;
2408;SDS011;8463;48.094;7.970;2022-09-17T04:46:41;2.23;;;1.10;;
2408;SDS011;8463;48.094;7.970;2022-09-17T04:49:06;1.47;;;0.97;;
2408;SDS011;8463;48.094;7.970;2022-09-17T04:51:32;1.53;;;1.03;;
2408;SDS011;8463;48.094;7.970;2022-09-17T04:53:58;0.97;;;0.70;;
2408;SDS011;8463;48.094;7.970;2022-09-17T04:56:24;2.60;;;1.20;;
2408;SDS011;8463;48.094;7.970;2022-09-17T04:58:49;4.93;;;1.13;;
2408;SDS011;8463;48.094;7.970;2022-09-17T05:01:15;1.03;;;0.70;;
2408;SDS011;8463;48.094;7.970;2022-09-17T05:03:42;2.00;;;0.80;;
2408;SDS011;8463;48.094;7.970;2022-09-17T05:06:08;1.10;;;1.00;;
2408;SDS011;8463;48.094;7.970;2022-09-17T05:08:34;1.20;;;0.90;;
2408;SDS011;8463;48.094;7.970;2022-09-17T05:11:00;2.50;;;1.10;;
2408;SDS011;8463;48.094;7.970;2022-09-17T05:13:26;0.90;;;0.80;;
2408;SDS011;8463;48.094;7.970;2022-09-17T05:15:53;0.70;;;0.67;;
2408;SDS011;8463;48.094;7.970;2022-09-17T05:18:20;1.97;;;1.20;;
2408;SDS011;8463;48.094;7.970;2022-09-17T05:20:46;2.70;;;1.30;;
2408;SDS011;8463;48.094;7.970;2022-09-17T05:23:12;3.30;;;1.73;;
2408;SDS011;8463;48.094;7.970;2022-09-17T05:25:37;2.30;;;1.33;;
2408;SDS011;8463;48.094;7.970;2022-09-17T05:28:03;1.50;;;1.40;;
2408;SDS011;8463;48.094;7.970;2022-09-17T05:30:29;1.50;;;1.40;;
2408;SDS011;8463;48.094;7.970;2022-09-17T05:32:59;1.30;;;1.20;;
2408;SDS011;8463;48.094;7.970;2022-09-17T05:35:30;7.17;;;1.67;;
2408;SDS011;8463;48.094;7.970;2022-09-17T05:37:59;2.00;;;1.33;;
2408;SDS011;8463;48.094;7.970;2022-09-17T05:40:27;3.53;;;1.40;;
2408;SDS011;8463;48.094;7.970;2022-09-17T05:42:56;2.93;;;1.70;;
2408;SDS011;8463;48.094;7.970;2022-09-17T05:45:27;2.10;;;1.77;;
2408;SDS011;8463;48.094;7.970;2022-09-17T05:47:56;3.10;;;1.67;;
2408;SDS011;8463;48.094;7.970;2022-09-17T05:50:23;1.33;;;1.23;;
2408;SDS011;8463;48.094;7.970;2022-09-17T05:52:50;1.70;;;1.57;;
2408;SDS011;8463;48.094;7.970;2022-09-17T05:55:16;1.67;;;1.57;;
2408;SDS011;8463;48.094;7.970;2022-09-17T05:57:43;1.67;;;1.50;;
2408;SDS011;8463;48.094;7.970;2022-09-17T06:00:09;7.80;;;2.57;;
2408;SDS011;8463;48.094;7.970;2022-09-17T06:02:35;10.03;;;2.07;;
2408;SDS011;8463;48.094;7.970;2022-09-17T06:05:01;9.13;;;2.50;;
2408;SDS011;8463;48.094;7.970;2022-09-17T06:07:28;4.10;;;3.10;;
2408;SDS011;8463;48.094;7.970;2022-09-17T06:09:54;6.97;;;2.07;;
2408;SDS011;8463;48.094;7.970;2022-09-17T06:12:20;3.37;;;2.33;;
2408;SDS011;8463;48.094;7.970;2022-09-17T06:14:46;5.50;;;2.37;;
2408;SDS011;8463;48.094;7.970;2022-09-17T06:17:11;1.70;;;1.60;;
2408;SDS011;8463;48.094;7.970;2022-09-17T06:19:37;2.77;;;1.70;;
2408;SDS011;8463;48.094;7.970;2022-09-17T06:22:03;2.70;;;2.07;;
2408;SDS011;8463;48.094;7.970;2022-09-17T06:24:29;3.03;;;1.80;;
2408;SDS011;8463;48.094;7.970;2022-09-17T06:26:56;6.00;;;2.00;;
2408;SDS011;8463;48.094;7.970;2022-09-17T06:29:22;2.13;;;2.00;;
2408;SDS011;8463;48.094;7.970;2022-09-17T06:31:48;2.57;;;1.97;;
2408;SDS011;8463;48.094;7.970;2022-09-17T06:34:14;2.23;;;2.03;;
2408;SDS011;8463;48.094;7.970;2022-09-17T06:36:40;2.20;;;1.90;;
2408;SDS011;8463;48.094;7.970;2022-09-17T06:39:06;2.33;;;1.73;;
2408;SDS011;8463;48.094;7.970;2022-09-17T06:41:31;7.30;;;2.47;;
2408;SDS011;8463;48.094;7.970;2022-09-17T06:43:57;2.17;;;1.70;;
2408;SDS011;8463;48.094;7.970;2022-09-17T06:46:23;2.30;;;2.10;;
2408;SDS011;8463;48.094;7.970;2022-09-17T06:48:49;4.30;;;2.40;;
2408;SDS011;8463;48.094;7.970;2022-09-17T06:51:14;2.80;;;1.97;;
2408;SDS011;8463;48.094;7.970;2022-09-17T06:53:40;3.00;;;2.50;;
2408;SDS011;8463;48.094;7.970;2022-09-17T06:56:06;6.53;;;2.07;;
2408;SDS011;8463;48.094;7.970;2022-09-17T06:58:36;2.70;;;2.10;;
2408;SDS011;8463;48.094;7.970;2022-09-17T07:01:03;5.57;;;2.23;;
2408;SDS011;8463;48.094;7.970;2022-09-17T07:03:29;3.10;;;2.00;;
2408;SDS011;8463;48.094;7.970;2022-09-17T07:05:55;2.90;;;2.37;;
2408;SDS011;8463;48.094;7.970;2022-09-17T07:08:21;3.30;;;2.70;;
2408;SDS011;8463;48.094;7.970;2022-09-17T07:10:47;7.07;;;4.50;;
2408;SDS011;8463;48.094;7.970;2022-09-17T07:13:13;4.33;;;2.17;;
2408;SDS011;8463;48.094;7.970;2022-09-17T07:15:39;4.20;;;2.70;;
2408;SDS011;8463;48.094;7.970;2022-09-17T07:18:09;2.63;;;2.43;;
2408;SDS011;8463;48.094;7.970;2022-09-17T07:20:35;2.60;;;2.27;;
2408;SDS011;8463;48.094;7.970;2022-09-17T07:23:01;3.50;;;1.70;;
2408;SDS011;8463;48.094;7.970;2022-09-17T07:25:27;2.47;;;2.03;;
2408;SDS011;8463;48.094;7.970;2022-09-17T07:27:52;2.27;;;2.07;;
2408;SDS011;8463;48.094;7.970;2022-09-17T07:30:19;2.40;;;2.10;;
2408;SDS011;8463;48.094;7.970;2022-09-17T07:32:45;6.30;;;2.97;;
2408;SDS011;8463;48.094;7.970;2022-09-17T07:35:10;2.57;;;1.90;;
2408;SDS011;8463;48.094;7.970;2022-09-17T07:37:36;2.80;;;2.60;;
2408;SDS011;8463;48.094;7.970;2022-09-17T07:40:03;4.10;;;2.07;;
2408;SDS011;8463;48.094;7.970;2022-09-17T07:42:35;2.90;;;2.20;;
2408;SDS011;8463;48.094;7.970;2022-09-17T07:45:01;3.23;;;1.93;;
2408;SDS011;8463;48.094;7.970;2022-09-17T07:47:26;2.33;;;2.13;;
2408;SDS011;8463;48.094;7.970;2022-09-17T07:49:52;3.50;;;1.97;;
2408;SDS011;8463;48.094;7.970;2022-09-17T07:52:17;2.27;;;2.07;;
2408;SDS011;8463;48.094;7.970;2022-09-17T07:54:43;2.33;;;2.20;;
2408;SDS011;8463;48.094;7.970;2022-09-17T07:57:08;4.30;;;2.10;;
2408;SDS011;8463;48.094;7.970;2022-09-17T07:59:35;3.50;;;1.77;;
2408;SDS011;8463;48.094;7.970;2022-09-17T08:02:00;7.10;;;2.20;;
2408;SDS011;8463;48.094;7.970;2022-09-17T08:04:26;9.07;;;2.53;;
2408;SDS011;8463;48.094;7.970;2022-09-17T08:06:52;4.53;;;1.87;;
2408;SDS011;8463;48.094;7.970;2022-09-17T08:09:18;2.27;;;2.10;;
2408;SDS011;8463;48.094;7.970;2022-09-17T08:11:43;1.60;;;1.50;;
2408;SDS011;8463;48.094;7.970;2022-09-17T08:14:10;2.00;;;1.80;;
2408;SDS011;8463;48.094;7.970;2022-09-17T08:16:38;2.60;;;1.70;;
2408;SDS011;8463;48.094;7.970;2022-09-17T08:19:04;1.73;;;1.63;;
2408;SDS011;8463;48.094;7.970;2022-09-17T08:21:29;3.67;;;1.97;;
2408;SDS011;8463;48.094;7.970;2022-09-17T08:23:55;2.40;;;1.47;;
2408;SDS011;8463;48.094;7.970;2022-09-17T08:26:21;2.83;;;1.57;;
2408;SDS011;8463;48.094;7.970;2022-09-17T08:28:48;3.17;;;1.80;;
2408;SDS011;8463;48.094;7.970;2022-09-17T08:31:18;2.30;;;2.10;;
2408;SDS011;8463;48.094;7.970;2022-09-17T08:33:45;2.40;;;1.70;;
2408;SDS011;8463;48.094;7.970;2022-09-17T08:36:12;2.60;;;1.40;;
2408;SDS011;8463;48.094;7.970;2022-09-17T08:38:39;2.03;;;1.73;;
2408;SDS011;8463;48.094;7.970;2022-09-17T08:43:35;2.10;;;1.60;;
2408;SDS011;8463;48.094;7.970;2022-09-17T08:46:22;2.17;;;1.60;;
2408;SDS011;8463;48.094;7.970;2022-09-17T08:48:55;3.47;;;2.03;;
2408;SDS011;8463;48.094;7.970;2022-09-17T08:51:47;2.63;;;1.87;;
2408;SDS011;8463;48.094;7.970;2022-09-17T08:56:46;1.77;;;1.67;;
2408;SDS011;8463;48.094;7.970;2022-09-17T08:59:40;1.80;;;1.53;;
2408;SDS011;8463;48.094;7.970;2022-09-17T09:02:35;2.87;;;1.60;;
2408;SDS011;8463;48.094;7.970;2022-09-17T09:07:42;2.30;;;1.40;;
2408;SDS011;8463;48.094;7.970;2022-09-17T09:10:28;3.07;;;1.60;;
2408;SDS011;8463;48.094;7.970;2022-09-17T09:13:01;1.43;;;1.33;;
2408;SDS011;8463;48.094;7.970;2022-09-17T09:15:36;5.90;;;2.07;;
2408;SDS011;8463;48.094;7.970;2022-09-17T09:18:16;1.87;;;1.20;;
2408;SDS011;8463;48.094;7.970;2022-09-17T09:20:45;3.37;;;2.00;;
2408;SDS011;8463;48.094;7.970;2022-09-17T09:23:19;3.77;;;1.57;;
2408;SDS011;8463;48.094;7.970;2022-09-17T09:26:39;3.67;;;1.63;;
2408;SDS011;8463;48.094;7.970;2022-09-17T09:31:19;5.87;;;2.23;;
2408;SDS011;8463;48.094;7.970;2022-09-17T09:34:14;11.30;;;2.17;;
2408;SDS011;8463;48.094;7.970;2022-09-17T09:36:40;9.00;;;2.43;;
2408;SDS011;8463;48.094;7.970;2022-09-17T09:39:11;2.07;;;1.77;;
2408;SDS011;8463;48.094;7.970;2022-09-17T09:41:45;2.20;;;1.60;;
2408;SDS011;8463;48.094;7.970;2022-09-17T09:44:18;4.53;;;2.03;;
2408;SDS011;8463;48.094;7.970;2022-09-17T09:47:05;2.83;;;1.80;;
2408;SDS011;8463;48.094;7.970;2022-09-17T09:52:57;2.40;;;1.73;;
2408;SDS011;8463;48.094;7.970;2022-09-17T09:58:23;4.03;;;1.97;;
2408;SDS011;8463;48.094;7.970;2022-09-17T10:00:53;3.40;;;2.10;;
2408;SDS011;8463;48.094;7.970;2022-09-17T10:03:20;3.10;;;2.13;;
2408;SDS011;8463;48.094;7.970;2022-09-17T10:06:06;2.23;;;2.03;;
2408;SDS011;8463;48.094;7.970;2022-09-17T10:08:38;5.80;;;3.50;;
2408;SDS011;8463;48.094;7.970;2022-09-17T10:11:15;1.93;;;1.73;;
2408;SDS011;8463;48.094;7.970;2022-09-17T10:13:47;1.97;;;1.60;;
2408;SDS011;8463;48.094;7.970;2022-09-17T10:16:16;3.50;;;1.97;;
2408;SDS011;8463;48.094;7.970;2022-09-17T10:18:50;3.37;;;1.83;;
2408;SDS011;8463;48.094;7.970;2022-09-17T10:21:44;2.70;;;1.87;;
2408;SDS011;8463;48.094;7.970;2022-09-17T10:24:23;3.57;;;2.33;;
2408;SDS011;8463;48.094;7.970;2022-09-17T10:27:04;2.40;;;2.20;;
2408;SDS011;8463;48.094;7.970;2022-09-17T10:29:32;4.07;;;1.97;;
2408;SDS011;8463;48.094;7.970;2022-09-17T10:31:58;3.10;;;1.87;;
2408;SDS011;8463;48.094;7.970;2022-09-17T10:34:25;3.40;;;1.60;;
2408;SDS011;8463;48.094;7.970;2022-09-17T10:36:53;4.90;;;2.07;;
2408;SDS011;8463;48.094;7.970;2022-09-17T10:39:36;2.57;;;1.60;;
2408;SDS011;8463;48.094;7.970;2022-09-17T10:42:15;5.10;;;3.93;;
2408;SDS011;8463;48.094;7.970;2022-09-17T10:44:55;2.97;;;1.80;;
2408;SDS011;8463;48.094;7.970;2022-09-17T10:47:25;2.60;;;2.20;;
2408;SDS011;8463;48.094;7.970;2022-09-17T11:00:19;2.80;;;1.20;;
2408;SDS011;8463;48.094;7.970;2022-09-17T11:02:56;2.17;;;1.50;;
2408;SDS011;8463;48.094;7.970;2022-09-17T11:08:42;2.37;;;1.30;;
2408;SDS011;8463;48.094;7.970;2022-09-17T11:14:32;2.70;;;1.20;;
2408;SDS011;8463;48.094;7.970;2022-09-17T11:20:18;3.30;;;1.70;;
2408;SDS011;8463;48.094;7.970;2022-09-17T11:25:44;2.50;;;1.40;;
2408;SDS011;8463;48.094;7.970;2022-09-17T11:31:23;1.40;;;1.30;;
2408;SDS011;8463;48.094;7.970;2022-09-17T11:42:13;3.20;;;1.47;;
2408;SDS011;8463;48.094;7.970;2022-09-17T11:44:48;2.77;;;1.40;;
2408;SDS011;8463;48.094;7.970;2022-09-17T11:47:20;1.37;;;0.97;;
2408;SDS011;8463;48.094;7.970;2022-09-17T11:49:54;4.60;;;1.53;;
2408;SDS011;8463;48.094;7.970;2022-09-17T11:52:39;1.67;;;0.87;;
2408;SDS011;8463;48.094;7.970;2022-09-17T11:57:51;1.60;;;1.23;;
2408;SDS011;8463;48.094;7.970;2022-09-17T12:00:23;1.43;;;1.00;;
2408;SDS011;8463;48.094;7.970;2022-09-17T12:02:51;2.10;;;1.10;;
2408;SDS011;8463;48.094;7.970;2022-09-17T12:05:34;1.80;;;1.20;;
2408;SDS011;8463;48.094;7.970;2022-09-17T12:11:05;1.37;;;1.00;;
2408;SDS011;8463;48.094;7.970;2022-09-17T12:13:48;1.00;;;1.00;;
2408;SDS011;8463;48.094;7.970;2022-09-17T12:16:25;3.27;;;1.73;;
2408;SDS011;8463;48.094;7.970;2022-09-17T12:19:03;1.03;;;0.90;;
2408;SDS011;8463;48.094;7.970;2022-09-17T12:21:48;3.47;;;1.70;;
2408;SDS011;8463;48.094;7.970;2022-09-17T12:24:21;1.90;;;1.03;;
2408;SDS011;8463;48.094;7.970;2022-09-17T12:32:48;1.30;;;1.20;;
2408;SDS011;8463;48.094;7.970;2022-09-17T12:49:35;1.67;;;1.20;;
2408;SDS011;8463;48.094;7.970;2022-09-17T13:00:47;1.97;;;1.00;;
2408;SDS011;8463;48.094;7.970;2022-09-17T13:03:23;1.13;;;0.90;;
2408;SDS011;8463;48.094;7.970;2022-09-17T13:08:51;1.47;;;0.90;;
2408;SDS011;8463;48.094;7.970;2022-09-17T13:21:59;1.23;;;0.80;;
2408;SDS011;8463;48.094;7.970;2022-09-17T13:24:30;0.90;;;0.80;;
2408;SDS011;8463;48.094;7.970;2022-09-17T13:26:59;0.97;;;0.87;;
2408;SDS011;8463;48.094;7.970;2022-09-17T13:32:12;4.77;;;1.23;;
2408;SDS011;8463;48.094;7.970;2022-09-17T13:42:46;8.37;;;4.23;;
2408;SDS011;8463;48.094;7.970;2022-09-17T13:45:16;4.33;;;2.60;;
2408;SDS011;8463;48.094;7.970;2022-09-17T13:47:48;3.40;;;1.23;;
2408;SDS011;8463;48.094;7.970;2022-09-17T13:50:33;2.30;;;1.40;;
2408;SDS011;8463;48.094;7.970;2022-09-17T13:53:07;2.40;;;1.13;;
2408;SDS011;8463;48.094;7.970;2022-09-17T13:55:48;1.40;;;0.90;;
2408;SDS011;8463;48.094;7.970;2022-09-17T13:58:26;1.23;;;1.00;;
2408;SDS011;8463;48.094;7.970;2022-09-17T14:00:58;5.10;;;1.20;;
2408;SDS011;8463;48.094;7.970;2022-09-17T14:06:44;1.20;;;1.10;;
2408;SDS011;8463;48.094;7.970;2022-09-17T14:13:49;2.00;;;0.70;;
2408;SDS011;8463;48.094;7.970;2022-09-17T14:24:36;1.57;;;0.90;;
2408;SDS011;8463;48.094;7.970;2022-09-17T14:30:05;2.00;;;1.40;;
2408;SDS011;8463;48.094;7.970;2022-09-17T14:38:22;1.87;;;1.23;;
2408;SDS011;8463;48.094;7.970;2022-09-17T14:46:28;3.20;;;1.23;;
2408;SDS011;8463;48.094;7.970;2022-09-17T14:51:51;4.57;;;1.47;;
2408;SDS011;8463;48.094;7.970;2022-09-17T14:54:21;1.47;;;1.20;;
2408;SDS011;8463;48.094;7.970;2022-09-17T14:59:22;1.10;;;0.83;;
2408;SDS011;8463;48.094;7.970;2022-09-17T15:01:59;2.40;;;1.20;;
2408;SDS011;8463;48.094;7.970;2022-09-17T15:04:25;2.73;;;1.10;;
2408;SDS011;8463;48.094;7.970;2022-09-17T15:06:52;3.07;;;1.00;;
2408;SDS011;8463;48.094;7.970;2022-09-17T15:09:30;2.43;;;1.33;;
2408;SDS011;8463;48.094;7.970;2022-09-17T15:11:57;2.10;;;0.83;;
2408;SDS011;8463;48.094;7.970;2022-09-17T15:14:27;1.00;;;0.70;;
2408;SDS011;8463;48.094;7.970;2022-09-17T15:16:55;3.57;;;0.90;;
2408;SDS011;8463;48.094;7.970;2022-09-17T15:19:25;1.17;;;1.00;;
2408;SDS011;8463;48.094;7.970;2022-09-17T15:21:53;2.17;;;1.00;;
2408;SDS011;8463;48.094;7.970;2022-09-17T15:27:28;1.03;;;0.90;;
2408;SDS011;8463;48.094;7.970;2022-09-17T15:30:19;3.63;;;1.37;;
2408;SDS011;8463;48.094;7.970;2022-09-17T15:35:27;1.67;;;0.80;;
2408;SDS011;8463;48.094;7.970;2022-09-17T15:37:55;0.77;;;0.60;;
2408;SDS011;8463;48.094;7.970;2022-09-17T15:40:24;1.53;;;0.70;;
2408;SDS011;8463;48.094;7.970;2022-09-17T15:42:56;1.90;;;0.73;;
2408;SDS011;8463;48.094;7.970;2022-09-17T15:45:31;3.63;;;0.87;;
2408;SDS011;8463;48.094;7.970;2022-09-17T15:48:01;1.30;;;0.77;;
2408;SDS011;8463;48.094;7.970;2022-09-17T15:50:28;1.43;;;1.10;;
2408;SDS011;8463;48.094;7.970;2022-09-17T15:55:39;3.30;;;0.90;;
2408;SDS011;8463;48.094;7.970;2022-09-17T15:58:24;1.10;;;1.00;;
2408;SDS011;8463;48.094;7.970;2022-09-17T16:01:05;1.53;;;1.00;;
2408;SDS011;8463;48.094;7.970;2022-09-17T16:08:44;2.87;;;1.50;;
2408;SDS011;8463;48.094;7.970;2022-09-17T16:11:16;6.53;;;1.30;;
2408;SDS011;8463;48.094;7.970;2022-09-17T16:13:47;2.33;;;1.03;;
2408;SDS011;8463;48.094;7.970;2022-09-17T16:16:14;1.77;;;0.90;;
2408;SDS011;8463;48.094;7.970;2022-09-17T16:18:40;3.47;;;1.87;;
2408;SDS011;8463;48.094;7.970;2022-09-17T16:21:09;1.30;;;1.00;;
2408;SDS011;8463;48.094;7.970;2022-09-17T16:23:35;2.50;;;0.90;;
2408;SDS011;8463;48.094;7.970;2022-09-17T16:26:01;2.90;;;0.90;;
2408;SDS011;8463;48.094;7.970;2022-09-17T16:28:27;1.80;;;0.60;;
2408;SDS011;8463;48.094;7.970;2022-09-17T16:30:54;2.63;;;1.03;;
2408;SDS011;8463;48.094;7.970;2022-09-17T16:33:20;2.03;;;1.07;;
2408;SDS011;8463;48.094;7.970;2022-09-17T16:35:46;2.40;;;0.90;;
2408;SDS011;8463;48.094;7.970;2022-09-17T16:38:12;1.03;;;0.80;;
2408;SDS011;8463;48.094;7.970;2022-09-17T16:40:39;1.90;;;0.70;;
2408;SDS011;8463;48.094;7.970;2022-09-17T16:43:10;1.10;;;0.90;;
2408;SDS011;8463;48.094;7.970;2022-09-17T16:45:36;1.53;;;0.70;;
2408;SDS011;8463;48.094;7.970;2022-09-17T16:48:02;0.77;;;0.60;;
2408;SDS011;8463;48.094;7.970;2022-09-17T16:50:28;2.40;;;0.83;;
2408;SDS011;8463;48.094;7.970;2022-09-17T16:52:54;1.10;;;0.70;;
2408;SDS011;8463;48.094;7.970;2022-09-17T16:55:20;0.60;;;0.50;;
2408;SDS011;8463;48.094;7.970;2022-09-17T16:57:46;2.80;;;0.70;;
2408;SDS011;8463;48.094;7.970;2022-09-17T17:00:13;2.53;;;0.80;;
2408;SDS011;8463;48.094;7.970;2022-09-17T17:02:42;1.37;;;0.50;;
2408;SDS011;8463;48.094;7.970;2022-09-17T17:05:09;0.80;;;0.70;;
2408;SDS011;8463;48.094;7.970;2022-09-17T17:07:35;1.00;;;0.80;;
2408;SDS011;8463;48.094;7.970;2022-09-17T17:10:01;1.90;;;0.90;;
2408;SDS011;8463;48.094;7.970;2022-09-17T17:12:28;1.10;;;1.00;;
2408;SDS011;8463;48.094;7.970;2022-09-17T17:14:55;3.47;;;1.23;;
2408;SDS011;8463;48.094;7.970;2022-09-17T17:17:20;2.20;;;0.80;;
2408;SDS011;8463;48.094;7.970;2022-09-17T17:19:46;3.70;;;1.63;;
2408;SDS011;8463;48.094;7.970;2022-09-17T17:22:15;0.80;;;0.80;;
2408;SDS011;8463;48.094;7.970;2022-09-17T17:24:40;1.20;;;1.10;;
2408;SDS011;8463;48.094;7.970;2022-09-17T17:27:06;2.60;;;1.27;;
2408;SDS011;8463;48.094;7.970;2022-09-17T17:29:34;0.93;;;0.70;;
2408;SDS011;8463;48.094;7.970;2022-09-17T17:32:01;3.33;;;1.20;;
2408;SDS011;8463;48.094;7.970;2022-09-17T17:34:28;1.33;;;0.70;;
2408;SDS011;8463;48.094;7.970;2022-09-17T17:36:54;2.00;;;1.07;;
2408;SDS011;8463;48.094;7.970;2022-09-17T17:39:20;1.50;;;0.90;;
2408;SDS011;8463;48.094;7.970;2022-09-17T17:41:46;1.40;;;1.10;;
2408;SDS011;8463;48.094;7.970;2022-09-17T17:44:11;4.00;;;2.27;;
2408;SDS011;8463;48.094;7.970;2022-09-17T17:46:37;2.30;;;1.00;;
2408;SDS011;8463;48.094;7.970;2022-09-17T17:49:04;3.23;;;1.33;;
2408;SDS011;8463;48.094;7.970;2022-09-17T17:51:30;4.50;;;1.77;;
2408;SDS011;8463;48.094;7.970;2022-09-17T17:53:56;2.53;;;1.27;;
2408;SDS011;8463;48.094;7.970;2022-09-17T17:56:22;1.87;;;0.90;;
2408;SDS011;8463;48.094;7.970;2022-09-17T17:58:52;1.00;;;0.60;;
2408;SDS011;8463;48.094;7.970;2022-09-17T18:01:21;3.10;;;0.83;;
2408;SDS011;8463;48.094;7.970;2022-09-17T18:03:48;0.80;;;0.70;;
2408;SDS011;8463;48.094;7.970;2022-09-17T18:06:14;1.90;;;1.00;;
2408;SDS011;8463;48.094;7.970;2022-09-17T18:08:41;1.20;;;0.90;;
2408;SDS011;8463;48.094;7.970;2022-09-17T18:11:09;3.07;;;1.20;;
2408;SDS011;8463;48.094;7.970;2022-09-17T18:13:36;2.83;;;1.30;;
2408;SDS011;8463;48.094;7.970;2022-09-17T18:16:03;1.57;;;1.00;;
2408;SDS011;8463;48.094;7.970;2022-09-17T18:18:31;1.70;;;1.40;;
2408;SDS011;8463;48.094;7.970;2022-09-17T18:21:00;1.10;;;1.00;;
2408;SDS011;8463;48.094;7.970;2022-09-17T18:23:27;3.50;;;1.03;;
2408;SDS011;8463;48.094;7.970;2022-09-17T18:25:53;1.70;;;1.00;;
2408;SDS011;8463;48.094;7.970;2022-09-17T18:28:20;1.17;;;1.07;;
2408;SDS011;8463;48.094;7.970;2022-09-17T18:30:46;0.90;;;0.80;;
2408;SDS011;8463;48.094;7.970;2022-09-17T18:33:15;1.77;;;1.07;;
2408;SDS011;8463;48.094;7.970;2022-09-17T18:35:45;1.10;;;1.00;;
2408;SDS011;8463;48.094;7.970;2022-09-17T18:38:11;0.80;;;0.70;;
2408;SDS011;8463;48.094;7.970;2022-09-17T18:40:38;2.77;;;0.83;;
2408;SDS011;8463;48.094;7.970;2022-09-17T18:43:03;1.33;;;1.00;;
2408;SDS011;8463;48.094;7.970;2022-09-17T18:45:29;1.30;;;1.00;;
2408;SDS011;8463;48.094;7.970;2022-09-17T18:47:56;1.70;;;1.20;;
2408;SDS011;8463;48.094;7.970;2022-09-17T18:50:21;0.90;;;0.80;;
2408;SDS011;8463;48.094;7.970;2022-09-17T18:52:47;3.30;;;1.57;;
2408;SDS011;8463;48.094;7.970;2022-09-17T18:55:13;1.50;;;1.33;;